Terminal Aerodrome Forecast
Issued by NWS Topeka, KS

Home | Current Version | Previous Version | Text Only | Print | Product List | Glossary On
Versions: 1 2 3 4 5 6 7 8 9 10 11 12 13 14 15 16 17 18 19
000
FTUS43 KTOP 031700
TAFTOP
TAF
KTOP 031736Z 0318/0418 29012G21KT P6SM OVC025
     FM032100 35014G19KT P6SM SCT025 OVC150
     FM041300 01012KT 5SM -SN BR SCT025 BKN040
     FM041600 01011KT P6SM BKN090=

USA.gov is the U.S. government's official web portal to all federal, state and local government web resources and services.